createdAt,value
2018-03-31T00:00:30.969Z,26.23
2018-03-31T00:03:00.772Z,24.87
2018-03-31T00:05:30.712Z,25.63
2018-03-31T00:08:00.305Z,23.83
2018-03-31T00:10:29.662Z,24.83
2018-03-31T00:12:59.622Z,27.60
2018-03-31T00:15:29.236Z,27.63
2018-03-31T00:17:58.758Z,26.27
2018-03-31T00:20:28.343Z,25.97
2018-03-31T00:22:57.962Z,22.67
2018-03-31T00:25:27.263Z,25.43
2018-03-31T00:27:56.765Z,24.07
2018-03-31T00:30:26.475Z,27.27
2018-03-31T00:32:56.095Z,27.03
2018-03-31T00:35:25.584Z,25.23
2018-03-31T00:37:55.205Z,30.23
2018-03-31T00:40:24.505Z,27.53
2018-03-31T00:42:54.242Z,21.40
2018-03-31T00:45:24.278Z,24.53
2018-03-31T00:47:53.841Z,24.50
2018-03-31T00:50:23.646Z,22.93
2018-03-31T00:52:52.743Z,21.73
2018-03-31T00:55:22.214Z,25.97
2018-03-31T00:57:51.878Z,25.60
2018-03-31T01:00:20.838Z,25.47
2018-03-31T01:02:50.862Z,28.80
2018-03-31T01:05:20.163Z,29.30
2018-03-31T01:07:49.988Z,22.23
2018-03-31T01:10:19.965Z,29.10
2018-03-31T01:12:49.804Z,24.53
2018-03-31T01:15:19.405Z,26.47
2018-03-31T01:17:48.844Z,23.80
2018-03-31T01:20:18.741Z,30.17
2018-03-31T01:22:48.237Z,28.83
2018-03-31T01:25:18.538Z,27.33
2018-03-31T01:27:48.370Z,30.17
2018-03-31T01:30:18.097Z,33.83
2018-03-31T01:32:47.689Z,23.90
2018-03-31T01:35:18.189Z,26.13
2018-03-31T01:37:48.358Z,26.67
2018-03-31T01:40:18.043Z,27.37
2018-03-31T01:42:47.555Z,28.77
2018-03-31T01:45:17.070Z,27.30
2018-03-31T01:47:46.694Z,27.47
2018-03-31T01:50:15.768Z,28.50
2018-03-31T01:52:45.180Z,30.87
2018-03-31T01:55:14.672Z,30.00
2018-03-31T01:57:44.191Z,27.10
2018-03-31T02:00:13.481Z,28.57
2018-03-31T02:02:42.987Z,30.27
2018-03-31T02:05:11.976Z,28.87
2018-03-31T02:07:41.766Z,30.67
2018-03-31T02:10:11.601Z,28.43
2018-03-31T02:12:41.772Z,47.43
2018-03-31T02:15:11.429Z,37.70
2018-03-31T02:17:41.142Z,28.37
2018-03-31T02:20:10.957Z,36.83
2018-03-31T02:22:40.379Z,25.57
2018-03-31T02:25:09.966Z,35.23
2018-03-31T02:27:40.500Z,27.40
2018-03-31T02:30:10.719Z,27.20
2018-03-31T02:32:40.432Z,27.67
2018-03-31T02:35:10.033Z,32.00
2018-03-31T02:37:39.640Z,28.60
2018-03-31T02:40:08.631Z,26.33
2018-03-31T02:42:38.139Z,28.63
2018-03-31T02:45:08.064Z,27.10
2018-03-31T02:47:37.778Z,31.03
2018-03-31T02:50:07.271Z,25.53
2018-03-31T02:52:37.498Z,24.47
2018-03-31T02:55:06.912Z,25.33
2018-03-31T02:57:36.306Z,28.50
2018-03-31T03:00:05.581Z,30.50
2018-03-31T03:02:36.088Z,26.00
2018-03-31T03:05:05.662Z,26.77
2018-03-31T03:07:35.458Z,26.10
2018-03-31T03:10:04.849Z,27.80
2018-03-31T03:12:34.614Z,31.63
2018-03-31T03:15:04.316Z,30.70
2018-03-31T03:17:33.977Z,28.10
2018-03-31T03:20:03.464Z,27.20
2018-03-31T03:22:32.985Z,27.03
2018-03-31T03:25:01.850Z,25.43
2018-03-31T03:27:30.776Z,27.50
2018-03-31T03:29:59.766Z,27.30
2018-03-31T03:32:28.725Z,25.83
2018-03-31T03:34:57.732Z,30.17
2018-03-31T03:37:26.865Z,29.57
2018-03-31T03:39:55.860Z,26.97
2018-03-31T03:42:25.651Z,26.00
2018-03-31T03:44:54.646Z,30.10
2018-03-31T03:47:24.264Z,28.57
2018-03-31T03:49:53.866Z,28.00
2018-03-31T03:52:22.861Z,28.67
2018-03-31T03:54:51.845Z,25.90
2018-03-31T03:57:20.813Z,31.47
2018-03-31T03:59:49.734Z,30.40
2018-03-31T04:02:18.709Z,31.73
2018-03-31T04:04:47.615Z,31.43
2018-03-31T04:07:17.122Z,30.90
2018-03-31T04:09:46.013Z,29.90
2018-03-31T04:12:15.118Z,31.23
2018-03-31T04:14:44.046Z,29.90
2018-03-31T04:17:12.908Z,26.93
2018-03-31T04:19:41.796Z,38.77
2018-03-31T04:22:10.749Z,33.03
2018-03-31T04:24:39.669Z,47.07
2018-03-31T04:27:08.560Z,48.60
2018-03-31T04:29:38.335Z,60.97
2018-03-31T04:32:07.261Z,85.50
2018-03-31T04:34:36.157Z,52.17
2018-03-31T04:37:05.086Z,32.57
2018-03-31T04:39:34.730Z,26.67
2018-03-31T04:42:04.261Z,38.73
2018-03-31T04:44:34.083Z,29.77
2018-03-31T04:47:03.088Z,24.17
2018-03-31T04:49:32.992Z,26.77
2018-03-31T04:52:02.509Z,22.90
2018-03-31T04:54:31.895Z,27.47
2018-03-31T04:57:01.394Z,50.17
2018-03-31T04:59:31.932Z,28.47
2018-03-31T05:02:01.533Z,30.93
2018-03-31T05:04:31.344Z,30.33
2018-03-31T05:07:00.959Z,29.03
2018-03-31T05:09:31.477Z,32.13
2018-03-31T05:12:00.516Z,31.23
2018-03-31T05:14:29.476Z,32.30
2018-03-31T05:16:58.469Z,30.97
2018-03-31T05:19:27.676Z,30.83
2018-03-31T05:21:56.606Z,29.77
2018-03-31T05:24:25.525Z,29.70
2018-03-31T05:26:54.397Z,28.33
2018-03-31T05:29:23.298Z,33.23
2018-03-31T05:31:52.327Z,26.13
2018-03-31T05:34:21.293Z,29.47
2018-03-31T05:36:50.287Z,29.67
2018-03-31T05:39:19.301Z,34.93
2018-03-31T05:41:48.204Z,42.23
2018-03-31T05:44:17.140Z,40.37
2018-03-31T05:46:46.161Z,46.77
2018-03-31T05:49:15.369Z,43.63
2018-03-31T05:51:44.452Z,46.10
2018-03-31T05:54:13.426Z,43.63
2018-03-31T05:56:42.468Z,43.83
2018-03-31T05:59:11.418Z,48.53
2018-03-31T06:01:40.449Z,41.57
2018-03-31T06:04:09.551Z,42.20
2018-03-31T06:06:38.544Z,39.93
2018-03-31T06:09:07.523Z,41.80
2018-03-31T06:11:36.517Z,34.13
2018-03-31T06:14:05.473Z,36.67
2018-03-31T06:16:34.526Z,37.03
2018-03-31T06:19:03.479Z,38.93
2018-03-31T06:21:32.594Z,37.93
2018-03-31T06:24:01.481Z,38.97
2018-03-31T06:26:30.477Z,37.87
2018-03-31T06:28:59.436Z,40.77
2018-03-31T06:31:28.380Z,38.60
2018-03-31T06:33:57.369Z,41.03
2018-03-31T06:36:26.355Z,38.67
2018-03-31T06:38:55.345Z,44.77
2018-03-31T06:41:24.438Z,38.93
2018-03-31T06:43:53.591Z,38.97
2018-03-31T06:46:22.648Z,39.60
2018-03-31T06:48:51.620Z,35.37
2018-03-31T06:51:20.705Z,37.00
2018-03-31T06:53:49.613Z,39.57
2018-03-31T06:56:19.425Z,37.47
2018-03-31T06:58:48.340Z,40.57
2018-03-31T07:01:17.311Z,39.67
2018-03-31T07:03:46.320Z,41.17
2018-03-31T07:06:15.266Z,39.83
2018-03-31T07:08:44.190Z,40.43
2018-03-31T07:11:13.050Z,44.63
2018-03-31T07:13:41.944Z,40.47
2018-03-31T07:16:10.956Z,42.27
2018-03-31T07:18:39.922Z,46.00
2018-03-31T07:21:08.823Z,42.67
2018-03-31T07:23:37.847Z,42.20
2018-03-31T07:26:06.943Z,42.17
2018-03-31T07:28:35.928Z,41.40
2018-03-31T07:31:04.815Z,41.03
2018-03-31T07:33:33.926Z,41.00
2018-03-31T07:36:02.886Z,40.17
2018-03-31T07:38:31.893Z,41.23
2018-03-31T07:41:01.679Z,44.30
2018-03-31T07:43:30.603Z,41.27
2018-03-31T07:45:59.751Z,41.70
2018-03-31T07:48:28.694Z,42.57
2018-03-31T07:50:57.688Z,41.03
2018-03-31T07:53:26.888Z,48.37
2018-03-31T07:55:55.871Z,47.70
2018-03-31T07:58:24.866Z,48.03
2018-03-31T08:00:53.972Z,44.60
2018-03-31T08:03:22.962Z,45.63
2018-03-31T08:05:51.928Z,43.73
2018-03-31T08:08:20.924Z,45.90
2018-03-31T08:10:49.896Z,48.13
2018-03-31T08:13:19.543Z,47.03
2018-03-31T08:15:48.436Z,40.80
2018-03-31T08:18:17.457Z,42.03
2018-03-31T08:20:46.504Z,40.23
2018-03-31T08:23:15.510Z,36.73
2018-03-31T08:25:44.417Z,39.03
2018-03-31T08:28:13.300Z,38.97
2018-03-31T08:30:42.288Z,40.20
2018-03-31T08:33:11.465Z,36.30
2018-03-31T08:35:40.490Z,35.07
2018-03-31T08:38:09.487Z,36.63
2018-03-31T08:40:38.469Z,35.37
2018-03-31T08:43:07.476Z,35.83
2018-03-31T08:45:36.321Z,32.53
2018-03-31T08:48:05.158Z,34.70
2018-03-31T08:50:34.039Z,36.07
2018-03-31T08:53:02.904Z,34.87
2018-03-31T08:55:31.727Z,34.13
2018-03-31T08:58:00.601Z,36.83
2018-03-31T09:00:29.463Z,39.90
2018-03-31T09:02:58.360Z,38.83
2018-03-31T09:05:27.277Z,37.87
2018-03-31T09:07:56.113Z,34.53
2018-03-31T09:10:24.955Z,33.80
2018-03-31T09:12:53.821Z,32.10
2018-03-31T09:15:22.749Z,35.20
2018-03-31T09:17:51.653Z,36.50
2018-03-31T09:20:20.582Z,33.90
2018-03-31T09:22:49.479Z,32.33
2018-03-31T09:25:18.360Z,32.90
2018-03-31T09:27:47.301Z,29.10
2018-03-31T09:30:16.167Z,31.67
2018-03-31T09:32:45.049Z,33.43
2018-03-31T09:35:13.925Z,32.87
2018-03-31T09:37:42.826Z,33.77
2018-03-31T09:40:11.689Z,32.03
2018-03-31T09:42:40.602Z,31.90
2018-03-31T09:45:09.528Z,41.80
2018-03-31T09:47:38.368Z,39.03
2018-03-31T09:50:07.226Z,33.87
2018-03-31T09:52:36.123Z,33.47
2018-03-31T09:55:04.960Z,33.27
2018-03-31T09:57:33.801Z,33.97
2018-03-31T10:00:02.671Z,34.17
2018-03-31T10:02:31.594Z,34.47
2018-03-31T10:05:00.468Z,33.10
2018-03-31T10:07:29.303Z,34.10
2018-03-31T10:09:58.208Z,29.90
2018-03-31T10:12:27.108Z,33.53
2018-03-31T10:14:56.011Z,29.87
2018-03-31T10:17:24.963Z,30.83
2018-03-31T10:19:53.822Z,32.37
2018-03-31T10:22:22.676Z,37.43
2018-03-31T10:24:51.513Z,29.80
2018-03-31T10:27:20.373Z,30.13
2018-03-31T10:29:49.275Z,30.57
2018-03-31T10:32:18.125Z,31.27
2018-03-31T10:34:47.106Z,35.57
2018-03-31T10:37:16.006Z,32.33
2018-03-31T10:39:44.869Z,29.23
2018-03-31T10:42:13.749Z,38.07
2018-03-31T10:44:42.608Z,29.87
2018-03-31T10:47:11.438Z,33.80
2018-03-31T10:49:40.314Z,36.00
2018-03-31T10:52:09.198Z,39.37
2018-03-31T10:54:38.018Z,35.87
2018-03-31T10:57:06.942Z,35.73
2018-03-31T10:59:35.868Z,32.10
2018-03-31T11:02:04.758Z,37.73
2018-03-31T11:04:33.671Z,31.83
2018-03-31T11:07:02.505Z,32.40
2018-03-31T11:09:31.329Z,36.10
2018-03-31T11:12:00.224Z,32.93
2018-03-31T11:14:29.073Z,34.97
2018-03-31T11:16:57.931Z,34.13
2018-03-31T11:19:26.851Z,33.87
2018-03-31T11:21:55.714Z,34.47
2018-03-31T11:24:24.550Z,34.20
2018-03-31T11:26:53.369Z,35.83
2018-03-31T11:29:22.194Z,33.47
2018-03-31T11:31:51.103Z,37.70
2018-03-31T11:34:20.033Z,37.50
2018-03-31T11:36:48.935Z,35.93
2018-03-31T11:39:17.834Z,36.83
2018-03-31T11:41:46.715Z,34.97
2018-03-31T11:44:15.993Z,36.93
2018-03-31T11:46:45.129Z,35.73
2018-03-31T11:49:13.990Z,39.00
2018-03-31T11:51:42.885Z,40.77
2018-03-31T11:54:11.765Z,38.63
2018-03-31T11:56:40.662Z,40.17
2018-03-31T11:59:09.544Z,34.40
2018-03-31T12:01:38.447Z,36.67
2018-03-31T12:04:07.329Z,32.37
2018-03-31T12:06:36.190Z,31.93
2018-03-31T12:09:05.024Z,31.17
2018-03-31T12:11:33.971Z,30.70
2018-03-31T12:14:02.864Z,30.73
2018-03-31T12:16:31.749Z,27.80
2018-03-31T12:19:00.668Z,32.07
2018-03-31T12:21:29.577Z,33.63
2018-03-31T12:23:58.429Z,28.57
2018-03-31T12:26:27.307Z,27.43
2018-03-31T12:28:56.142Z,39.97
2018-03-31T12:31:25.028Z,33.57
2018-03-31T12:33:53.897Z,34.63
2018-03-31T12:36:22.727Z,33.37
2018-03-31T12:38:51.649Z,29.57
2018-03-31T12:41:20.507Z,37.93
2018-03-31T12:43:49.476Z,32.03
2018-03-31T12:46:18.387Z,33.87
2018-03-31T12:48:47.198Z,36.33
2018-03-31T12:51:16.065Z,28.93
2018-03-31T12:53:44.968Z,30.17
2018-03-31T12:56:13.838Z,28.17
2018-03-31T12:58:42.775Z,27.20
2018-03-31T13:01:11.704Z,28.80
2018-03-31T13:03:40.581Z,28.57
2018-03-31T13:06:09.503Z,30.20
2018-03-31T13:08:38.348Z,27.73
2018-03-31T13:11:07.205Z,25.97
2018-03-31T13:13:36.103Z,26.23
2018-03-31T13:16:04.983Z,26.87
2018-03-31T13:18:33.920Z,24.90
2018-03-31T13:21:02.778Z,27.27
2018-03-31T13:23:31.635Z,22.90
2018-03-31T13:26:00.451Z,27.53
2018-03-31T13:28:29.271Z,24.87
2018-03-31T13:30:58.184Z,24.47
2018-03-31T13:33:27.086Z,22.53
2018-03-31T13:35:55.991Z,22.77
2018-03-31T13:38:24.911Z,24.63
2018-03-31T13:40:53.800Z,21.10
2018-03-31T13:43:22.712Z,21.20
2018-03-31T13:45:51.655Z,20.57
2018-03-31T13:48:20.649Z,21.67
2018-03-31T13:50:49.520Z,19.67
2018-03-31T13:53:18.450Z,21.20
2018-03-31T13:55:47.282Z,21.73
2018-03-31T13:58:16.152Z,20.93
2018-03-31T14:00:45.001Z,21.00
2018-03-31T14:03:13.857Z,19.30
2018-03-31T14:05:42.775Z,21.53
2018-03-31T14:08:11.605Z,18.73
2018-03-31T14:10:40.443Z,20.83
2018-03-31T14:13:09.368Z,23.77
2018-03-31T14:15:38.235Z,22.73
2018-03-31T14:18:07.065Z,21.90
2018-03-31T14:20:36.015Z,20.27
2018-03-31T14:23:05.779Z,20.20
2018-03-31T14:25:34.624Z,21.73
2018-03-31T14:28:03.459Z,19.47
2018-03-31T14:30:32.298Z,17.63
2018-03-31T14:33:01.178Z,16.93
2018-03-31T14:35:30.043Z,17.17
2018-03-31T14:37:58.969Z,17.43
2018-03-31T14:40:27.986Z,17.40
2018-03-31T14:42:56.923Z,17.30
2018-03-31T14:45:25.750Z,17.67
2018-03-31T14:47:54.635Z,17.20
2018-03-31T14:50:23.472Z,16.80
2018-03-31T14:52:52.360Z,18.47
2018-03-31T14:55:21.211Z,20.23
2018-03-31T14:57:50.079Z,18.00
2018-03-31T15:00:18.953Z,16.97
2018-03-31T15:02:47.870Z,19.83
2018-03-31T15:05:16.740Z,18.80
2018-03-31T15:07:45.598Z,18.07
2018-03-31T15:10:14.454Z,19.43
2018-03-31T15:12:43.303Z,19.30
2018-03-31T15:15:12.213Z,18.77
2018-03-31T15:17:41.092Z,18.90
2018-03-31T15:20:09.990Z,19.37
2018-03-31T15:22:38.878Z,19.23
2018-03-31T15:25:07.711Z,20.13
2018-03-31T15:27:36.529Z,19.40
2018-03-31T15:30:05.371Z,19.00
2018-03-31T15:32:34.207Z,21.93
2018-03-31T15:35:03.078Z,23.57
2018-03-31T15:37:32.020Z,20.97
2018-03-31T15:40:00.883Z,23.17
2018-03-31T15:42:29.771Z,23.00
2018-03-31T15:44:58.688Z,21.47
2018-03-31T15:47:27.535Z,24.83
2018-03-31T15:49:56.415Z,24.30
2018-03-31T15:52:25.337Z,23.30
2018-03-31T15:54:54.211Z,22.70
2018-03-31T15:57:23.151Z,23.60
2018-03-31T15:59:52.022Z,25.00
2018-03-31T16:02:20.886Z,23.57
2018-03-31T16:04:49.790Z,24.10
2018-03-31T16:07:18.615Z,24.87
2018-03-31T16:09:47.480Z,25.37
2018-03-31T16:12:16.373Z,26.67
2018-03-31T16:14:45.203Z,25.47
2018-03-31T16:17:14.046Z,24.93
2018-03-31T16:19:42.930Z,26.07
2018-03-31T16:22:11.751Z,24.77
2018-03-31T16:24:40.636Z,26.90
2018-03-31T16:27:09.452Z,28.43
2018-03-31T16:29:38.313Z,26.33
2018-03-31T16:32:07.176Z,27.40
2018-03-31T16:34:36.043Z,29.37
2018-03-31T16:37:05.007Z,31.47
2018-03-31T16:39:33.925Z,27.87
2018-03-31T16:42:02.894Z,28.30
2018-03-31T16:44:31.916Z,31.53
2018-03-31T16:47:00.879Z,30.57
2018-03-31T16:49:29.802Z,29.23
2018-03-31T16:51:58.678Z,30.37
2018-03-31T16:54:27.550Z,32.17
2018-03-31T16:56:56.425Z,35.13
2018-03-31T16:59:25.301Z,35.33
2018-03-31T17:01:54.150Z,33.30
2018-03-31T17:04:23.091Z,37.67
2018-03-31T17:06:51.959Z,33.97
2018-03-31T17:09:20.800Z,30.57
2018-03-31T17:11:49.724Z,27.93
2018-03-31T17:14:18.638Z,38.03
2018-03-31T17:16:47.617Z,42.07
2018-03-31T17:19:16.545Z,41.40
2018-03-31T17:21:45.376Z,42.93
2018-03-31T17:24:14.279Z,38.77
2018-03-31T17:26:43.118Z,37.13
2018-03-31T17:29:11.976Z,38.47
2018-03-31T17:31:40.842Z,35.43
2018-03-31T17:34:09.723Z,42.07
2018-03-31T17:36:38.702Z,41.27
2018-03-31T17:39:07.506Z,41.40
2018-03-31T17:41:36.364Z,37.43
2018-03-31T17:44:05.232Z,31.37
2018-03-31T17:46:34.079Z,27.07
2018-03-31T17:49:02.934Z,27.50
2018-03-31T17:51:31.854Z,26.27
2018-03-31T17:54:00.720Z,23.33
2018-03-31T17:56:29.644Z,23.77
2018-03-31T17:58:58.537Z,21.97
2018-03-31T18:01:27.471Z,23.93
2018-03-31T18:03:56.329Z,24.03
2018-03-31T18:06:25.209Z,22.30
2018-03-31T18:08:54.127Z,23.97
2018-03-31T18:11:23.028Z,21.97
2018-03-31T18:13:51.866Z,21.90
2018-03-31T18:16:20.770Z,20.20
2018-03-31T18:18:49.625Z,22.27
2018-03-31T18:21:18.524Z,19.97
2018-03-31T18:23:47.384Z,20.63
2018-03-31T18:26:16.233Z,21.83
2018-03-31T18:28:45.107Z,21.23
2018-03-31T18:31:14.125Z,23.53
2018-03-31T18:33:43.034Z,22.53
2018-03-31T18:36:11.955Z,22.97
2018-03-31T18:38:40.835Z,23.23
2018-03-31T18:41:09.711Z,23.07
2018-03-31T18:43:38.594Z,22.70
2018-03-31T18:46:07.481Z,22.23
2018-03-31T18:48:36.341Z,23.50
2018-03-31T18:51:05.162Z,24.90
2018-03-31T18:53:34.093Z,28.67
2018-03-31T18:56:02.959Z,28.77
2018-03-31T18:58:31.797Z,31.10
2018-03-31T19:01:00.750Z,27.27
2018-03-31T19:03:30.126Z,24.43
2018-03-31T19:05:59.421Z,21.73
2018-03-31T19:08:28.744Z,24.80
2018-03-31T19:10:58.279Z,26.13
2018-03-31T19:13:27.248Z,25.80
2018-03-31T19:15:56.726Z,26.13
2018-03-31T19:18:25.950Z,23.90
2018-03-31T19:20:55.333Z,22.30
2018-03-31T19:23:25.241Z,27.83
2018-03-31T19:25:54.740Z,25.33
2018-03-31T19:28:23.959Z,26.70
2018-03-31T19:30:53.355Z,24.03
2018-03-31T19:33:22.874Z,22.93
2018-03-31T19:35:58.964Z,21.80
2018-03-31T19:38:28.821Z,21.40
2018-03-31T19:40:57.665Z,22.87
2018-03-31T19:43:27.635Z,21.80
2018-03-31T19:45:58.501Z,20.93
2018-03-31T19:48:28.342Z,21.20
2018-03-31T19:50:57.293Z,19.97
2018-03-31T19:53:27.342Z,18.23
2018-03-31T19:55:57.114Z,21.37
2018-03-31T19:58:26.950Z,20.23
2018-03-31T20:00:56.640Z,22.97
2018-03-31T20:03:26.496Z,22.13
2018-03-31T20:05:56.361Z,24.23
2018-03-31T20:08:25.648Z,23.43
2018-03-31T20:10:55.058Z,20.33
2018-03-31T20:13:25.102Z,25.77
2018-03-31T20:15:54.287Z,21.93
2018-03-31T20:18:23.622Z,20.63
2018-03-31T20:20:52.879Z,20.70
2018-03-31T20:23:22.101Z,18.50
2018-03-31T20:25:52.004Z,20.30
2018-03-31T20:28:21.756Z,16.80
2018-03-31T20:30:51.331Z,20.00
2018-03-31T20:33:20.450Z,17.83
2018-03-31T20:35:49.784Z,16.30
2018-03-31T20:38:18.999Z,17.57
2018-03-31T20:40:47.921Z,18.70
2018-03-31T20:43:17.852Z,18.00
2018-03-31T20:45:47.089Z,23.20
2018-03-31T20:48:16.590Z,19.77
2018-03-31T20:50:46.042Z,20.03
2018-03-31T20:53:15.149Z,17.37
2018-03-31T20:55:44.719Z,19.13
2018-03-31T20:58:13.832Z,17.60
2018-03-31T21:00:43.273Z,18.43
2018-03-31T21:03:13.345Z,20.17
2018-03-31T21:05:42.834Z,19.83
2018-03-31T21:08:12.456Z,17.53
2018-03-31T21:10:42.195Z,22.97
2018-03-31T21:13:11.450Z,20.93
2018-03-31T21:15:40.766Z,20.63
2018-03-31T21:18:10.066Z,18.87
2018-03-31T21:20:39.733Z,17.70
2018-03-31T21:23:08.568Z,18.83
2018-03-31T21:25:37.924Z,18.47
2018-03-31T21:28:07.136Z,18.70
2018-03-31T21:30:36.571Z,19.07
2018-03-31T21:33:05.864Z,16.67
2018-03-31T21:35:35.238Z,14.60
2018-03-31T21:38:04.417Z,14.63
2018-03-31T21:40:33.630Z,16.33
2018-03-31T21:43:02.828Z,15.37
2018-03-31T21:45:32.764Z,13.63
2018-03-31T21:48:01.987Z,15.20
2018-03-31T21:50:31.469Z,14.43
2018-03-31T21:53:00.686Z,13.47
2018-03-31T21:55:30.155Z,14.53
2018-03-31T21:57:59.795Z,12.53
2018-03-31T22:00:30.090Z,11.57
2018-03-31T22:02:59.212Z,13.37
2018-03-31T22:05:28.597Z,13.00
2018-03-31T22:07:58.124Z,11.93
2018-03-31T22:10:27.563Z,16.33
2018-03-31T22:13:02.826Z,11.50
2018-03-31T22:15:37.686Z,12.80
2018-03-31T22:18:07.098Z,11.23
2018-03-31T22:20:36.483Z,11.77
2018-03-31T22:23:05.886Z,13.67
2018-03-31T22:25:35.206Z,10.57
2018-03-31T22:28:04.474Z,14.73
2018-03-31T22:30:34.102Z,13.20
2018-03-31T22:33:03.622Z,16.27
2018-03-31T22:35:32.872Z,13.13
2018-03-31T22:38:02.439Z,13.40
2018-03-31T22:40:31.725Z,13.47
2018-03-31T22:43:00.680Z,14.80
2018-03-31T22:45:29.852Z,11.13
2018-03-31T22:47:58.717Z,14.23
2018-03-31T22:50:28.213Z,13.77
2018-03-31T22:52:57.803Z,13.43
2018-03-31T22:55:26.954Z,11.10
2018-03-31T22:57:56.183Z,11.53
2018-03-31T23:00:25.425Z,12.30
2018-03-31T23:02:54.784Z,11.80
2018-03-31T23:05:24.563Z,10.07
2018-03-31T23:07:54.004Z,17.07
2018-03-31T23:10:23.300Z,13.27
2018-03-31T23:12:52.489Z,11.43
2018-03-31T23:15:21.749Z,11.57
2018-03-31T23:17:51.257Z,11.63
2018-03-31T23:20:20.502Z,15.20
2018-03-31T23:22:49.924Z,9.70
2018-03-31T23:25:19.241Z,12.03
2018-03-31T23:27:48.564Z,12.57
2018-03-31T23:30:17.945Z,13.17
2018-03-31T23:32:47.308Z,11.50
2018-03-31T23:35:17.516Z,11.33
2018-03-31T23:37:46.928Z,9.63
2018-03-31T23:40:16.373Z,10.07
2018-03-31T23:42:45.517Z,8.87
2018-03-31T23:45:14.846Z,10.70
2018-03-31T23:47:44.051Z,18.33
2018-03-31T23:50:13.460Z,27.40
2018-03-31T23:52:42.625Z,15.47
2018-03-31T23:55:11.943Z,10.07
2018-03-31T23:57:41.317Z,9.97
